Time;durP1;ratioP1;P1;durP2;ratioP2;P2;SDS_P1;SDS_P2;PMS_P1;PMS_P2;Temp;Humidity;BMP_temperature;BMP_pressure;BME280_temperature;BME280_humidity;BME280_pressure;Samples;Min_cycle;Max_cycle;Signal;HPM_P1;HPM_P2
2023/12/02 00:00:21;;;;;;;16.43;4.73;;;-3.10;99.90;;;;;;4934271;29;20555;-66
2023/12/02 00:02:46;;;;;;;10.17;4.50;;;-3.10;99.90;;;;;;4935062;29;20191;-66
2023/12/02 00:05:12;;;;;;;11.53;4.63;;;-3.10;99.90;;;;;;4934896;29;20211;-66
2023/12/02 00:07:37;;;;;;;11.00;4.73;;;-3.10;99.90;;;;;;4934798;29;20668;-67
2023/12/02 00:10:04;;;;;;;10.83;5.20;;;-3.10;99.90;;;;;;4934106;29;20239;-66
2023/12/02 00:12:29;;;;;;;13.47;5.40;;;-3.00;99.90;;;;;;4934835;29;20705;-66
2023/12/02 00:14:55;;;;;;;14.63;5.73;;;-2.90;99.90;;;;;;4934654;29;20439;-67
2023/12/02 00:17:20;;;;;;;13.70;6.23;;;-2.90;99.90;;;;;;4934745;29;20258;-67
2023/12/02 00:19:46;;;;;;;15.00;5.90;;;-2.90;99.90;;;;;;4932824;29;21012;-66
2023/12/02 00:22:13;;;;;;;14.33;6.00;;;-2.80;99.90;;;;;;4934391;29;20265;-67
2023/12/02 00:24:39;;;;;;;15.17;6.07;;;-2.80;99.90;;;;;;4934412;29;20222;-66
2023/12/02 00:27:05;;;;;;;15.33;6.47;;;-2.80;99.90;;;;;;4934407;29;20427;-66
2023/12/02 00:29:30;;;;;;;15.47;6.50;;;-2.70;99.90;;;;;;4933879;29;20191;-66
2023/12/02 00:31:56;;;;;;;15.13;5.97;;;-2.70;99.90;;;;;;4934249;29;20720;-66
2023/12/02 00:34:21;;;;;;;13.70;5.50;;;-2.70;99.90;;;;;;4934364;29;20195;-66
2023/12/02 00:36:48;;;;;;;13.83;6.00;;;-2.60;99.90;;;;;;4934146;29;20282;-66
2023/12/02 00:39:14;;;;;;;13.63;5.73;;;-2.60;99.90;;;;;;4934138;29;20198;-65
2023/12/02 00:41:40;;;;;;;10.43;5.37;;;-2.60;99.90;;;;;;4933573;29;20450;-67
2023/12/02 00:44:06;;;;;;;10.40;4.97;;;-2.60;99.90;;;;;;4933337;29;20536;-66
2023/12/02 00:46:32;;;;;;;17.43;6.27;;;-2.60;99.90;;;;;;4933732;29;20438;-67
2023/12/02 00:48:58;;;;;;;16.90;6.57;;;-2.60;99.90;;;;;;4933750;29;20194;-66
2023/12/02 00:51:23;;;;;;;14.40;5.60;;;-2.60;99.90;;;;;;4933367;29;20740;-66
2023/12/02 00:53:49;;;;;;;15.37;6.30;;;-2.60;99.90;;;;;;4933634;29;20198;-66
2023/12/02 00:56:14;;;;;;;21.17;6.77;;;-2.60;99.90;;;;;;4932835;29;20195;-67
2023/12/02 00:58:40;;;;;;;13.13;5.60;;;-2.60;99.90;;;;;;4933811;29;20747;-67
2023/12/02 01:01:06;;;;;;;13.47;5.87;;;-2.50;99.90;;;;;;4933186;29;20202;-66
2023/12/02 01:03:32;;;;;;;15.17;6.90;;;-2.50;99.90;;;;;;4933733;29;20682;-66
2023/12/02 01:05:57;;;;;;;17.47;7.20;;;-2.50;99.90;;;;;;4933481;29;20462;-66
2023/12/02 01:08:23;;;;;;;16.57;6.63;;;-2.50;99.90;;;;;;4933770;29;20795;-66
2023/12/02 01:10:48;;;;;;;16.10;6.97;;;-2.60;99.90;;;;;;4932746;29;20207;-66
2023/12/02 01:13:14;;;;;;;14.50;6.63;;;-2.60;99.90;;;;;;4933640;29;20190;-66
2023/12/02 01:15:39;;;;;;;16.50;6.63;;;-2.60;99.90;;;;;;4933602;29;20634;-66
2023/12/02 01:18:05;;;;;;;14.80;6.93;;;-2.60;99.90;;;;;;4933503;29;20206;-66
2023/12/02 01:20:31;;;;;;;16.13;6.63;;;-2.50;99.90;;;;;;4931685;29;20194;-67
2023/12/02 01:22:56;;;;;;;12.23;6.03;;;-2.50;99.90;;;;;;4933275;29;20672;-66
2023/12/02 01:25:22;;;;;;;12.80;6.00;;;-2.50;99.90;;;;;;4933575;29;20215;-66
2023/12/02 01:27:47;;;;;;;13.17;5.93;;;-2.50;99.90;;;;;;4933313;29;20578;-67
2023/12/02 01:30:13;;;;;;;14.87;6.00;;;-2.50;99.90;;;;;;4932718;29;20572;-66
2023/12/02 01:32:39;;;;;;;13.47;6.30;;;-2.60;99.90;;;;;;4932847;29;20207;-67
2023/12/02 01:35:04;;;;;;;13.53;6.30;;;-2.60;99.90;;;;;;4932076;29;20549;-66
2023/12/02 01:37:30;;;;;;;12.73;6.23;;;-2.60;99.90;;;;;;4933327;29;20206;-66
2023/12/02 01:39:56;;;;;;;14.73;6.73;;;-2.50;99.90;;;;;;4932420;29;20207;-67
2023/12/02 01:42:21;;;;;;;15.30;6.67;;;-2.50;99.90;;;;;;4933315;29;20211;-67
2023/12/02 01:44:47;;;;;;;14.97;5.90;;;-2.50;99.90;;;;;;4933103;29;20673;-66
2023/12/02 01:47:12;;;;;;;16.97;6.53;;;-2.50;99.90;;;;;;4933225;29;20740;-66
2023/12/02 01:49:40;;;;;;;15.43;6.13;;;-2.50;99.90;;;;;;4932282;29;20187;-67
2023/12/02 01:52:06;;;;;;;14.43;6.43;;;-2.40;99.90;;;;;;4933134;29;20590;-66
2023/12/02 01:54:32;;;;;;;13.90;6.63;;;-2.40;99.90;;;;;;4933204;29;20871;-67
2023/12/02 01:56:58;;;;;;;13.87;5.87;;;-2.30;99.90;;;;;;4932930;29;20473;-67
2023/12/02 01:59:23;;;;;;;16.77;7.00;;;-2.30;99.90;;;;;;4932548;29;20268;-66
2023/12/02 02:01:49;;;;;;;13.53;6.23;;;-2.30;99.90;;;;;;4932828;29;20451;-66
2023/12/02 02:04:15;;;;;;;17.87;6.70;;;-2.20;99.90;;;;;;4932740;29;20187;-66
2023/12/02 02:06:40;;;;;;;13.83;6.33;;;-2.20;99.90;;;;;;4932948;29;20246;-67
2023/12/02 02:09:06;;;;;;;12.90;5.90;;;-2.20;99.90;;;;;;4933023;29;20191;-67
2023/12/02 02:11:31;;;;;;;13.50;6.13;;;-2.20;99.90;;;;;;4932321;29;20703;-67
2023/12/02 02:13:57;;;;;;;13.00;5.47;;;-2.20;99.90;;;;;;4932869;29;20179;-67
2023/12/02 02:16:22;;;;;;;13.50;6.27;;;-2.20;99.90;;;;;;4932956;29;20343;-65
2023/12/02 02:18:48;;;;;;;11.23;5.60;;;-2.20;99.90;;;;;;4932560;29;20210;-67
2023/12/02 02:21:16;;;;;;;12.10;4.87;;;-2.10;99.90;;;;;;4932027;29;20254;-67
2023/12/02 02:23:42;;;;;;;11.53;5.50;;;-2.10;99.90;;;;;;4932816;29;20198;-66
2023/12/02 02:26:08;;;;;;;12.60;5.20;;;-2.10;99.90;;;;;;4932839;29;20482;-67
2023/12/02 02:28:33;;;;;;;10.77;4.77;;;-2.10;99.90;;;;;;4916113;29;20205;-66
2023/12/02 02:30:59;;;;;;;11.47;4.70;;;-2.00;99.90;;;;;;4914782;29;20274;-65
2023/12/02 02:33:26;;;;;;;9.57;4.40;;;-2.00;99.90;;;;;;4932829;29;20221;-66
2023/12/02 02:35:51;;;;;;;9.63;4.40;;;-2.00;99.90;;;;;;4931515;29;20191;-66
2023/12/02 02:38:17;;;;;;;10.40;5.00;;;-2.10;99.90;;;;;;4932911;29;20427;-66
2023/12/02 02:40:43;;;;;;;10.70;5.13;;;-2.00;99.90;;;;;;4932072;29;20211;-67
2023/12/02 02:43:09;;;;;;;8.70;4.60;;;-2.00;99.90;;;;;;4933262;29;20190;-67
2023/12/02 02:45:35;;;;;;;9.10;4.53;;;-2.00;99.90;;;;;;4936579;29;20474;-67
2023/12/02 02:48:00;;;;;;;8.93;4.63;;;-2.10;99.90;;;;;;4936069;29;20187;-67
2023/12/02 02:50:26;;;;;;;10.50;4.60;;;-2.00;99.90;;;;;;4935900;29;20214;-66
2023/12/02 02:52:52;;;;;;;9.33;4.67;;;-2.10;99.90;;;;;;4951541;29;20221;-66
2023/12/02 02:55:17;;;;;;;10.83;4.80;;;-2.00;99.90;;;;;;4936988;29;20194;-67
2023/12/02 02:57:43;;;;;;;9.40;4.43;;;-2.10;99.90;;;;;;4936914;29;20583;-67
2023/12/02 03:00:09;;;;;;;8.10;4.20;;;-2.10;99.90;;;;;;4935960;29;20643;-67
2023/12/02 03:02:39;;;;;;;11.23;4.53;;;-2.20;99.90;;;;;;4936973;29;20211;-68
2023/12/02 03:05:05;;;;;;;9.00;4.67;;;-2.20;99.90;;;;;;4936960;29;20561;-67
2023/12/02 03:07:31;;;;;;;12.30;4.83;;;-2.10;99.90;;;;;;4937425;29;20434;-67
2023/12/02 03:09:57;;;;;;;8.73;4.63;;;-2.10;99.90;;;;;;4935414;29;20419;-66
2023/12/02 03:12:24;;;;;;;16.23;6.27;;;-2.10;99.90;;;;;;4935942;29;20449;-67
2023/12/02 03:14:50;;;;;;;11.80;5.63;;;-2.10;99.90;;;;;;4935702;29;20187;-67
2023/12/02 03:17:16;;;;;;;12.63;5.70;;;-2.00;99.90;;;;;;4935727;29;20433;-66
2023/12/02 03:19:41;;;;;;;12.47;5.00;;;-2.00;99.90;;;;;;4934989;29;20431;-67
2023/12/02 03:22:07;;;;;;;9.50;5.00;;;-1.90;99.90;;;;;;4935745;29;20290;-67
2023/12/02 03:24:32;;;;;;;9.73;4.90;;;-1.90;99.90;;;;;;4935688;29;20219;-67
2023/12/02 03:26:58;;;;;;;11.57;5.33;;;-1.90;99.90;;;;;;4935258;29;20270;-67
2023/12/02 03:29:24;;;;;;;10.37;5.03;;;-1.90;99.90;;;;;;4933771;29;20267;-67
2023/12/02 03:31:49;;;;;;;10.93;4.90;;;-1.90;99.90;;;;;;4935106;29;20235;-68
2023/12/02 03:34:15;;;;;;;12.23;5.43;;;-1.90;99.90;;;;;;4935563;29;20187;-66
2023/12/02 03:36:40;;;;;;;11.07;5.33;;;-1.90;99.90;;;;;;4935293;29;20191;-66
2023/12/02 03:39:06;;;;;;;12.20;5.03;;;-2.10;99.90;;;;;;4935261;29;20266;-66
2023/12/02 03:41:32;;;;;;;9.20;5.07;;;-2.10;99.90;;;;;;4934781;29;20231;-67
2023/12/02 03:43:58;;;;;;;9.27;4.70;;;-2.00;99.90;;;;;;4935141;29;20210;-67
2023/12/02 03:46:27;;;;;;;11.17;5.37;;;-2.00;99.90;;;;;;4935198;29;20210;-67
2023/12/02 03:48:52;;;;;;;11.03;5.20;;;-2.00;99.90;;;;;;4934913;29;20940;-67
2023/12/02 03:51:18;;;;;;;8.67;4.57;;;-2.00;99.90;;;;;;4934371;29;20457;-68
2023/12/02 03:53:45;;;;;;;8.60;4.77;;;-2.00;99.90;;;;;;4934893;29;20221;-67
2023/12/02 03:56:11;;;;;;;9.87;5.00;;;-2.00;99.90;;;;;;4934899;29;20211;-66
2023/12/02 03:58:37;;;;;;;9.50;4.90;;;-1.90;99.90;;;;;;4935177;29;20493;-66
2023/12/02 04:01:02;;;;;;;9.30;4.40;;;-1.90;99.90;;;;;;4934200;29;20274;-67
2023/12/02 04:03:28;;;;;;;7.93;4.20;;;-1.80;99.90;;;;;;4934907;29;20187;-67
2023/12/02 04:05:53;;;;;;;9.13;4.37;;;-1.80;99.90;;;;;;4934664;29;20229;-66
2023/12/02 04:08:19;;;;;;;8.33;4.77;;;-1.80;99.90;;;;;;4934905;29;20278;-66
2023/12/02 04:10:44;;;;;;;9.27;4.90;;;-1.90;99.90;;;;;;4932714;29;20218;-67
2023/12/02 04:13:10;;;;;;;9.03;4.37;;;-1.90;99.90;;;;;;4934749;29;20191;-66
2023/12/02 04:15:35;;;;;;;8.80;4.53;;;-1.90;99.90;;;;;;4934692;29;20685;-66
2023/12/02 04:18:02;;;;;;;9.30;4.40;;;-1.90;99.90;;;;;;4934458;29;20187;-67
2023/12/02 04:20:28;;;;;;;10.67;4.67;;;-1.80;99.90;;;;;;4948636;29;20191;-67
2023/12/02 04:22:53;;;;;;;10.20;4.27;;;-2.00;99.90;;;;;;4934538;29;20546;-66
2023/12/02 04:25:19;;;;;;;8.20;4.20;;;-2.00;99.90;;;;;;4934513;29;20211;-66
2023/12/02 04:27:46;;;;;;;9.33;4.53;;;-2.00;99.90;;;;;;4934392;29;20187;-66
2023/12/02 04:30:11;;;;;;;10.47;5.10;;;-2.10;99.90;;;;;;4933624;29;20301;-66
2023/12/02 04:32:37;;;;;;;11.07;5.17;;;-2.00;99.90;;;;;;4934161;29;20294;-67
2023/12/02 04:35:05;;;;;;;9.40;4.90;;;-1.90;99.90;;;;;;4934292;29;20191;-66
2023/12/02 04:37:31;;;;;;;12.97;5.30;;;-2.00;99.90;;;;;;4934762;29;20564;-66
2023/12/02 04:39:56;;;;;;;9.90;4.90;;;-2.00;99.90;;;;;;4933415;29;20423;-66
2023/12/02 04:42:22;;;;;;;11.77;4.97;;;-2.00;99.90;;;;;;4934211;29;20234;-67
2023/12/02 04:44:48;;;;;;;11.73;5.17;;;-2.00;99.90;;;;;;4934022;29;20218;-66
2023/12/02 04:47:13;;;;;;;9.77;4.90;;;-2.10;99.90;;;;;;4948889;29;20282;-67
2023/12/02 04:49:40;;;;;;;9.57;4.53;;;-2.00;99.90;;;;;;4933127;29;20199;-67
2023/12/02 04:52:05;;;;;;;9.77;5.00;;;-2.00;99.90;;;;;;4934089;29;20610;-66
2023/12/02 04:54:33;;;;;;;9.80;5.00;;;-2.00;99.90;;;;;;4934231;29;20435;-67
2023/12/02 04:57:00;;;;;;;16.63;6.30;;;-2.10;99.90;;;;;;4917086;29;20187;-67
2023/12/02 04:59:25;;;;;;;14.33;6.10;;;-2.10;99.90;;;;;;4933296;29;20442;-67
2023/12/02 05:01:51;;;;;;;11.17;5.13;;;-2.10;99.90;;;;;;4933849;29;20447;-67
2023/12/02 05:04:16;;;;;;;13.43;4.97;;;-2.00;99.90;;;;;;4933544;29;20261;-66
2023/12/02 05:06:42;;;;;;;11.43;5.20;;;-2.00;99.90;;;;;;4933153;29;20199;-65
2023/12/02 05:09:08;;;;;;;11.50;5.07;;;-2.10;99.90;;;;;;4933700;29;20186;-67
2023/12/02 05:11:33;;;;;;;11.20;5.23;;;-2.10;99.90;;;;;;4933077;29;20804;-66
2023/12/02 05:13:59;;;;;;;9.27;4.70;;;-2.10;99.90;;;;;;4933444;29;20222;-67
2023/12/02 05:16:25;;;;;;;11.17;5.17;;;-2.00;99.90;;;;;;4933782;29;20194;-67
2023/12/02 05:18:51;;;;;;;11.33;5.20;;;-2.10;99.90;;;;;;4933152;29;20653;-66
2023/12/02 05:21:18;;;;;;;8.90;4.47;;;-2.10;99.90;;;;;;4932805;29;20215;-67
2023/12/02 05:23:43;;;;;;;10.23;4.83;;;-2.20;99.90;;;;;;4933421;29;20198;-66
2023/12/02 05:26:09;;;;;;;12.27;4.97;;;-2.20;99.90;;;;;;4933477;29;20879;-66
2023/12/02 05:28:35;;;;;;;10.10;4.17;;;-2.20;99.90;;;;;;4933530;29;20191;-67
2023/12/02 05:31:01;;;;;;;11.17;5.27;;;-2.20;99.90;;;;;;4932692;29;20275;-66
2023/12/02 05:33:27;;;;;;;9.73;4.20;;;-2.10;99.90;;;;;;4933366;29;20431;-66
2023/12/02 05:35:53;;;;;;;8.47;4.63;;;-2.10;99.90;;;;;;4933294;29;20191;-66
2023/12/02 05:38:18;;;;;;;8.63;4.23;;;-2.10;99.90;;;;;;4933329;29;20438;-66
2023/12/02 05:40:44;;;;;;;9.63;4.50;;;-2.20;99.90;;;;;;4932490;29;20215;-66
2023/12/02 05:43:10;;;;;;;8.23;4.17;;;-2.20;99.90;;;;;;4933211;29;20266;-66
2023/12/02 05:45:35;;;;;;;11.83;5.50;;;-2.20;99.90;;;;;;4933185;29;20242;-67
2023/12/02 05:48:01;;;;;;;10.07;4.57;;;-2.20;99.90;;;;;;4932987;29;20221;-67
2023/12/02 05:50:26;;;;;;;9.53;5.57;;;-2.30;99.90;;;;;;4932688;29;20191;-67
2023/12/02 05:52:52;;;;;;;8.47;4.47;;;-2.30;99.90;;;;;;4933110;29;20829;-67
2023/12/02 05:55:18;;;;;;;9.57;4.47;;;-2.30;99.90;;;;;;4933687;29;20211;-67
2023/12/02 05:57:44;;;;;;;9.77;4.53;;;-2.40;99.90;;;;;;4932982;29;20206;-66
2023/12/02 06:00:10;;;;;;;10.87;4.47;;;-2.50;99.90;;;;;;4932416;29;20580;-67
2023/12/02 06:02:36;;;;;;;11.90;5.33;;;-2.50;99.90;;;;;;4933019;29;20447;-67
2023/12/02 06:05:02;;;;;;;9.40;4.57;;;-2.40;99.90;;;;;;4931547;29;20892;-67
2023/12/02 06:07:27;;;;;;;9.63;4.80;;;-2.40;99.90;;;;;;4933136;29;20191;-67
2023/12/02 06:09:53;;;;;;;11.53;5.27;;;-2.40;99.90;;;;;;4932209;29;20936;-66
2023/12/02 06:12:18;;;;;;;12.93;5.83;;;-2.40;99.90;;;;;;4932950;29;20684;-67
2023/12/02 06:14:44;;;;;;;17.10;6.80;;;-2.60;99.90;;;;;;4933106;29;20183;-67
2023/12/02 06:17:10;;;;;;;10.47;4.93;;;-2.50;99.90;;;;;;4933372;29;20290;-67
2023/12/02 06:19:35;;;;;;;10.20;5.30;;;-2.50;99.90;;;;;;4935036;29;20187;-66
2023/12/02 06:22:01;;;;;;;12.00;5.43;;;-2.50;99.90;;;;;;4936594;29;20222;-67
2023/12/02 06:24:27;;;;;;;11.40;6.03;;;-2.50;99.90;;;;;;4936866;29;20725;-67
2023/12/02 06:26:52;;;;;;;12.97;5.73;;;-2.50;99.90;;;;;;4936582;29;20195;-67
2023/12/02 06:29:18;;;;;;;12.30;5.63;;;-2.60;99.90;;;;;;4936632;29;20199;-66
2023/12/02 06:31:43;;;;;;;12.17;5.67;;;-2.50;99.90;;;;;;4935857;29;20241;-66
2023/12/02 06:34:09;;;;;;;11.83;5.07;;;-2.50;99.90;;;;;;4936574;29;20198;-67
2023/12/02 06:36:34;;;;;;;14.03;5.67;;;-2.50;99.90;;;;;;4936753;29;20187;-66
2023/12/02 06:39:00;;;;;;;16.30;6.63;;;-2.50;99.90;;;;;;4935141;29;20649;-66
2023/12/02 06:41:25;;;;;;;16.10;6.30;;;-2.60;99.90;;;;;;4934518;29;20219;-65
2023/12/02 06:43:51;;;;;;;17.37;6.73;;;-2.60;99.90;;;;;;4936385;29;20565;-65
2023/12/02 06:46:23;;;;;;;15.13;6.27;;;-2.70;99.90;;;;;;4936270;29;20701;-65
2023/12/02 06:48:50;;;;;;;15.03;5.87;;;-2.60;99.90;;;;;;4936201;29;20179;-65
2023/12/02 06:51:16;;;;;;;16.73;5.93;;;-2.60;99.90;;;;;;4937146;29;20484;-65
2023/12/02 06:53:41;;;;;;;17.43;6.53;;;-2.70;99.90;;;;;;4937566;28;20427;-67
2023/12/02 06:56:21;;;;;;;17.10;6.20;;;-2.70;99.90;;;;;;4936134;29;20430;-67
2023/12/02 06:58:47;;;;;;;13.97;5.87;;;-2.70;99.90;;;;;;4935948;29;20672;-67
2023/12/02 07:01:33;;;;;;;17.27;6.97;;;-2.70;99.90;;;;;;4935261;29;20450;-67
2023/12/02 07:04:00;;;;;;;16.33;6.77;;;-2.60;99.90;;;;;;4936113;29;20435;-67
2023/12/02 07:06:26;;;;;;;15.20;6.07;;;-2.60;99.90;;;;;;4934959;29;20494;-68
2023/12/02 07:08:53;;;;;;;15.83;7.00;;;-2.60;99.90;;;;;;4934685;29;20427;-67
2023/12/02 07:11:19;;;;;;;15.70;6.50;;;-2.50;99.90;;;;;;4935263;29;20451;-66
2023/12/02 07:13:45;;;;;;;17.10;6.50;;;-2.60;99.90;;;;;;4935707;29;20423;-66
2023/12/02 07:16:10;;;;;;;24.63;10.77;;;-2.70;99.90;;;;;;4950412;29;20187;-66
2023/12/02 07:18:36;;;;;;;20.13;7.70;;;-2.60;99.90;;;;;;4935741;29;20191;-68
2023/12/02 07:21:02;;;;;;;20.40;8.30;;;-2.60;99.90;;;;;;4935054;29;20215;-68
2023/12/02 07:23:31;;;;;;;18.17;7.50;;;-2.60;99.90;;;;;;4935729;29;20199;-67
2023/12/02 07:25:57;;;;;;;21.83;8.70;;;-2.60;99.90;;;;;;4935444;29;20218;-66
2023/12/02 07:28:23;;;;;;;18.97;8.20;;;-2.50;99.90;;;;;;4935626;29;20430;-66
2023/12/02 07:30:49;;;;;;;17.77;7.40;;;-2.50;99.90;;;;;;4933928;29;20915;-67
2023/12/02 07:33:15;;;;;;;16.27;7.33;;;-2.40;99.90;;;;;;4935546;29;20258;-67
2023/12/02 07:35:42;;;;;;;23.80;10.50;;;-2.30;99.90;;;;;;4933742;29;20667;-67
2023/12/02 07:38:08;;;;;;;14.93;6.40;;;-2.30;99.90;;;;;;4935460;29;20454;-67
2023/12/02 07:40:35;;;;;;;13.43;6.20;;;-2.40;99.90;;;;;;4949272;29;20438;-67
2023/12/02 07:43:00;;;;;;;15.03;6.30;;;-2.30;99.90;;;;;;4935158;29;20435;-68
2023/12/02 07:45:26;;;;;;;18.30;7.00;;;-2.30;99.90;;;;;;4934826;29;20529;-66
2023/12/02 07:47:52;;;;;;;22.73;10.87;;;-2.20;99.90;;;;;;4935374;29;20189;-67
2023/12/02 07:50:17;;;;;;;14.63;6.37;;;-2.20;99.90;;;;;;4934499;29;20544;-67
2023/12/02 07:52:43;;;;;;;14.90;5.97;;;-2.20;99.90;;;;;;4935024;29;20453;-67
2023/12/02 07:55:08;;;;;;;17.47;8.53;;;-2.30;99.90;;;;;;4935181;29;20219;-68
2023/12/02 07:57:34;;;;;;;19.63;7.67;;;-2.20;99.90;;;;;;4935111;29;20194;-68
2023/12/02 07:59:59;;;;;;;15.03;6.30;;;-2.20;99.90;;;;;;4934242;29;20206;-67
2023/12/02 08:02:26;;;;;;;14.40;6.83;;;-2.20;99.90;;;;;;4935062;29;20241;-68
2023/12/02 08:04:51;;;;;;;24.30;10.73;;;-2.10;99.90;;;;;;4934680;29;20587;-67
2023/12/02 08:07:18;;;;;;;45.77;19.37;;;-2.20;99.90;;;;;;4934970;29;20929;-68
2023/12/02 08:09:44;;;;;;;22.23;10.73;;;-2.10;99.90;;;;;;4934184;29;20190;-67
2023/12/02 08:12:10;;;;;;;14.67;6.83;;;-2.10;99.90;;;;;;4934756;29;20465;-67
2023/12/02 08:14:36;;;;;;;13.40;5.60;;;-2.20;99.90;;;;;;4934744;29;20191;-67
2023/12/02 08:17:02;;;;;;;18.43;7.77;;;-2.10;99.90;;;;;;4934723;29;20427;-67
2023/12/02 08:19:28;;;;;;;17.50;8.40;;;-2.20;99.90;;;;;;4932764;29;20734;-67
2023/12/02 08:21:54;;;;;;;22.33;9.97;;;-2.10;99.90;;;;;;4934471;29;20498;-69
2023/12/02 08:24:20;;;;;;;18.40;6.87;;;-2.10;99.90;;;;;;4934596;29;20187;-67
2023/12/02 08:26:47;;;;;;;11.93;6.23;;;-2.10;99.90;;;;;;4933460;29;20699;-66
2023/12/02 08:29:13;;;;;;;12.63;6.20;;;-2.10;99.90;;;;;;4934629;29;20431;-67
2023/12/02 08:31:39;;;;;;;13.70;6.43;;;-2.10;99.90;;;;;;4933709;29;20499;-67
2023/12/02 08:34:04;;;;;;;14.80;7.10;;;-2.00;99.90;;;;;;4934131;29;20521;-66
2023/12/02 08:36:30;;;;;;;13.63;7.03;;;-2.00;99.90;;;;;;4933237;29;20242;-66
2023/12/02 08:38:56;;;;;;;15.33;7.33;;;-1.90;99.90;;;;;;4933997;29;20732;-66
2023/12/02 08:41:21;;;;;;;17.13;8.37;;;-1.90;99.90;;;;;;4932657;29;20214;-67
2023/12/02 08:43:47;;;;;;;21.60;10.80;;;-1.90;99.90;;;;;;4934115;29;20728;-67
2023/12/02 08:46:17;;;;;;;18.57;8.77;;;-1.90;99.90;;;;;;4934106;29;20217;-67
2023/12/02 08:48:43;;;;;;;13.10;6.40;;;-1.90;99.90;;;;;;4933915;29;20755;-66
2023/12/02 08:51:08;;;;;;;14.10;6.77;;;-1.90;99.90;;;;;;4933294;29;20447;-67
2023/12/02 08:53:34;;;;;;;13.53;6.27;;;-1.90;99.90;;;;;;4934140;29;20199;-67
2023/12/02 08:56:00;;;;;;;14.87;6.10;;;-2.00;99.90;;;;;;4933963;29;20191;-68
2023/12/02 08:58:25;;;;;;;12.37;5.40;;;-2.10;99.90;;;;;;4934087;29;20183;-67
2023/12/02 09:00:51;;;;;;;12.43;5.90;;;-2.10;99.90;;;;;;4933029;29;20243;-67
2023/12/02 09:03:17;;;;;;;12.57;5.90;;;-2.20;99.90;;;;;;4933902;29;20194;-67
2023/12/02 09:05:43;;;;;;;12.17;6.00;;;-2.20;99.90;;;;;;4933554;29;21046;-67
2023/12/02 09:08:09;;;;;;;10.87;5.03;;;-2.20;99.90;;;;;;4933818;29;20210;-67
2023/12/02 09:10:34;;;;;;;10.80;4.97;;;-2.20;99.90;;;;;;4933034;29;20195;-67
2023/12/02 09:13:00;;;;;;;9.73;4.80;;;-2.10;99.90;;;;;;4933669;29;20218;-66
2023/12/02 09:15:39;;;;;;;10.97;5.20;;;-2.10;99.90;;;;;;4934316;29;20187;-67
2023/12/02 09:18:05;;;;;;;10.53;5.43;;;-2.20;99.90;;;;;;4933618;28;20679;-68
2023/12/02 09:20:40;;;;;;;12.60;5.20;;;-2.20;99.90;;;;;;4932903;29;20510;-66
2023/12/02 09:23:06;;;;;;;10.73;5.50;;;-2.20;99.90;;;;;;4933362;29;20186;-67
2023/12/02 09:25:36;;;;;;;14.97;7.13;;;-2.10;99.90;;;;;;4937892;28;20497;-67
2023/12/02 09:28:05;;;;;;;15.13;6.87;;;-2.00;99.90;;;;;;4938110;29;20433;-67
2023/12/02 09:30:34;;;;;;;14.17;6.73;;;-2.00;99.90;;;;;;4931880;29;20443;-67
2023/12/02 09:33:00;;;;;;;14.60;7.13;;;-1.90;99.90;;;;;;4936737;29;20422;-68
2023/12/02 09:35:26;;;;;;;8.33;4.23;;;-1.90;99.90;;;;;;4932754;29;20434;-67
2023/12/02 09:37:51;;;;;;;8.83;4.17;;;-1.90;99.90;;;;;;4947135;29;20266;-66
2023/12/02 09:40:20;;;;;;;9.17;4.30;;;-1.90;99.90;;;;;;4932477;29;20234;-66
2023/12/02 09:43:10;;;;;;;8.97;4.27;;;-1.90;99.90;;;;;;4932573;29;20241;-68
2023/12/02 09:45:45;;;;;;;8.33;4.10;;;-1.90;99.90;;;;;;4932198;29;20474;-66
2023/12/02 09:48:22;;;;;;;8.43;4.10;;;-1.90;99.90;;;;;;4924937;29;20411;-67
2023/12/02 09:51:07;;;;;;;7.47;3.90;;;-1.90;99.90;;;;;;4931621;29;20439;-66
2023/12/02 09:54:05;;;;;;;8.50;4.10;;;-1.80;99.90;;;;;;4932539;29;20418;-67
2023/12/02 09:56:39;;;;;;;9.20;4.90;;;-1.80;99.90;;;;;;4932534;29;20423;-67
2023/12/02 09:59:21;;;;;;;8.80;4.23;;;-1.80;99.90;;;;;;4932505;29;20455;-68
2023/12/02 10:01:53;;;;;;;9.50;4.17;;;-1.80;99.90;;;;;;4931833;29;20435;-68
2023/12/02 10:04:46;;;;;;;9.47;4.50;;;-1.70;99.90;;;;;;4932459;29;20423;-67
2023/12/02 10:07:34;;;;;;;11.33;5.67;;;-1.70;99.90;;;;;;4932543;29;20431;-67
2023/12/02 10:10:09;;;;;;;11.60;5.10;;;-1.90;99.90;;;;;;4931187;29;20478;-66
2023/12/02 10:13:16;;;;;;;8.60;4.67;;;-1.90;99.90;;;;;;4932349;29;20506;-65
2023/12/02 10:15:43;;;;;;;9.03;4.57;;;-1.80;99.90;;;;;;4932113;29;20418;-67
2023/12/02 10:18:13;;;;;;;10.07;4.70;;;-1.80;99.90;;;;;;4931964;29;20872;-66
2023/12/02 10:20:41;;;;;;;11.67;4.80;;;-1.90;99.90;;;;;;4931545;29;20431;-66
2023/12/02 10:23:18;;;;;;;17.60;7.07;;;-1.80;99.90;;;;;;4932407;29;20423;-65
2023/12/02 10:26:16;;;;;;;12.17;5.30;;;-1.70;99.90;;;;;;4931999;29;20462;-66
2023/12/02 10:28:47;;;;;;;10.47;4.37;;;-1.80;99.90;;;;;;4932285;29;20421;-68
2023/12/02 10:31:24;;;;;;;24.10;9.10;;;-1.80;99.90;;;;;;4931244;29;20462;-67
2023/12/02 10:34:15;;;;;;;25.13;9.30;;;-1.70;99.90;;;;;;4932065;29;20181;-66
2023/12/02 10:36:43;;;;;;;11.53;5.40;;;-1.60;99.90;;;;;;4932278;29;20807;-67
2023/12/02 10:39:43;;;;;;;54.97;15.83;;;-1.50;99.90;;;;;;4924565;29;20423;-67
2023/12/02 10:42:33;;;;;;;20.53;7.83;;;-1.60;99.90;;;;;;4927782;29;20447;-67
2023/12/02 10:45:11;;;;;;;10.90;5.57;;;-1.50;99.90;;;;;;4931931;29;20215;-66
2023/12/02 10:47:37;;;;;;;14.80;6.17;;;-1.50;99.90;;;;;;4931940;29;20911;-65
2023/12/02 10:50:05;;;;;;;11.90;5.27;;;-1.50;99.90;;;;;;4945480;29;20431;-67
2023/12/02 10:52:31;;;;;;;10.40;5.40;;;-1.40;99.90;;;;;;4931724;29;20450;-67
2023/12/02 10:55:02;;;;;;;11.27;5.60;;;-1.40;99.90;;;;;;4931558;29;20431;-67
2023/12/02 10:57:29;;;;;;;11.00;5.90;;;-1.50;99.90;;;;;;4931832;29;20803;-67
2023/12/02 11:00:11;;;;;;;10.27;5.33;;;-1.60;99.90;;;;;;4930769;29;20430;-69
2023/12/02 11:03:00;;;;;;;15.57;7.77;;;-1.50;99.90;;;;;;4931442;29;20447;-68
2023/12/02 11:05:29;;;;;;;10.43;5.30;;;-1.50;99.90;;;;;;4934183;29;20466;-67
2023/12/02 11:08:06;;;;;;;8.10;4.47;;;-1.40;99.90;;;;;;4935359;29;20202;-67
2023/12/02 11:10:37;;;;;;;10.87;5.10;;;-1.40;99.90;;;;;;4935104;29;20183;-65
2023/12/02 11:13:12;;;;;;;9.40;4.77;;;-1.40;99.90;;;;;;4935512;29;20605;-64
2023/12/02 11:15:56;;;;;;;7.87;4.17;;;-1.30;99.90;;;;;;4935457;29;20900;-65
2023/12/02 11:19:01;;;;;;;9.63;4.33;;;-1.30;99.90;;;;;;4935517;29;20415;-65
2023/12/02 11:22:08;;;;;;;11.50;4.63;;;-1.30;99.90;;;;;;4922403;29;20595;-65
2023/12/02 11:24:48;;;;;;;7.73;4.37;;;-1.20;99.90;;;;;;4932986;29;20727;-65
2023/12/02 11:27:43;;;;;;;11.80;4.87;;;-1.20;99.90;;;;;;4935278;29;20431;-66
2023/12/02 11:30:19;;;;;;;9.30;4.00;;;-1.20;99.90;;;;;;4934973;29;20411;-66
2023/12/02 11:33:19;;;;;;;8.97;4.30;;;-1.20;99.90;;;;;;4934754;29;20442;-67
2023/12/02 11:35:50;;;;;;;6.93;4.10;;;-1.20;99.90;;;;;;4934694;29;20411;-66
2023/12/02 11:38:19;;;;;;;10.57;4.50;;;-1.10;99.90;;;;;;4934978;29;20189;-65
2023/12/02 11:41:05;;;;;;;9.77;4.83;;;-1.10;99.90;;;;;;4934135;29;20851;-67
2023/12/02 11:43:38;;;;;;;7.60;3.97;;;-1.00;99.90;;;;;;4935034;29;20597;-66
2023/12/02 11:46:14;;;;;;;7.03;3.60;;;-1.00;99.90;;;;;;4934573;29;20555;-64
2023/12/02 11:49:23;;;;;;;7.37;3.90;;;-1.00;99.90;;;;;;4935137;29;20186;-66
2023/12/02 11:52:16;;;;;;;7.43;4.00;;;-0.80;99.90;;;;;;4931575;29;20697;-66
2023/12/02 11:55:03;;;;;;;8.13;4.17;;;-0.70;99.90;;;;;;4934825;29;20194;-65
2023/12/02 11:57:50;;;;;;;7.27;3.90;;;-0.60;99.90;;;;;;4934560;29;20230;-66
2023/12/02 12:00:29;;;;;;;8.17;3.90;;;-0.30;99.90;;;;;;4927006;29;20582;-65
2023/12/02 12:03:16;;;;;;;9.57;4.30;;;-0.20;99.90;;;;;;4934322;29;20690;-66
2023/12/02 12:06:12;;;;;;;8.87;4.50;;;0.00;99.90;;;;;;4934329;29;20684;-65
2023/12/02 12:09:02;;;;;;;12.40;4.37;;;0.30;99.90;;;;;;4934593;29;20179;-66
2023/12/02 12:11:29;;;;;;;7.23;3.67;;;0.60;99.90;;;;;;4928590;29;20195;-66
2023/12/02 12:13:56;;;;;;;7.80;3.57;;;0.80;99.90;;;;;;4934502;29;20566;-66
2023/12/02 12:16:21;;;;;;;12.07;6.00;;;0.90;99.90;;;;;;4934234;29;20190;-66
2023/12/02 12:18:47;;;;;;;10.97;5.07;;;1.00;99.90;;;;;;4934711;29;20183;-67
2023/12/02 12:21:12;;;;;;;9.60;4.90;;;1.00;99.90;;;;;;4933665;29;20270;-66
2023/12/02 12:23:38;;;;;;;7.27;4.03;;;1.20;99.90;;;;;;4934216;29;20202;-68
2023/12/02 12:26:05;;;;;;;8.73;3.70;;;1.20;99.90;;;;;;4933711;29;20708;-66
2023/12/02 12:28:32;;;;;;;7.40;3.87;;;1.20;99.90;;;;;;4933826;29;20191;-66
2023/12/02 12:30:57;;;;;;;7.03;3.37;;;1.10;99.90;;;;;;4932841;29;20246;-67
2023/12/02 12:33:23;;;;;;;7.87;3.97;;;1.20;99.90;;;;;;4933652;29;20665;-66
2023/12/02 12:35:48;;;;;;;7.30;3.70;;;1.10;99.90;;;;;;4948251;29;20586;-65
2023/12/02 12:38:14;;;;;;;7.40;3.63;;;1.10;99.90;;;;;;4933660;29;20605;-67
2023/12/02 12:40:42;;;;;;;8.03;3.67;;;0.90;99.90;;;;;;4933009;29;20222;-66
2023/12/02 12:43:09;;;;;;;10.70;4.03;;;0.80;99.90;;;;;;4933646;29;20183;-65
2023/12/02 12:45:34;;;;;;;5.30;3.37;;;0.90;99.90;;;;;;4933534;29;20725;-67
2023/12/02 12:48:03;;;;;;;7.10;3.47;;;0.80;99.90;;;;;;4933715;29;20214;-66